Time;durP1;ratioP1;P1;durP2;ratioP2;P2;SDS_P1;SDS_P2;PMS_P1;PMS_P2;Temp;Humidity;BMP_temperature;BMP_pressure;BME280_temperature;BME280_humidity;BME280_pressure;Samples;Min_cycle;Max_cycle;Signal;HPM_P1;HPM_P2
2021/04/01 00:01:23;;;;;;;13.23;8.63;;;;;;;15.06;44.23;96557.84;5057625;28;20473;-86
2021/04/01 00:03:50;;;;;;;13.87;8.67;;;;;;;14.99;44.41;96559.38;5057496;28;20487;-86
2021/04/01 00:06:16;;;;;;;18.10;9.50;;;;;;;14.94;44.96;96551.50;5058396;28;20842;-86
2021/04/01 00:08:42;;;;;;;13.37;7.60;;;;;;;14.89;45.06;96550.44;5057739;28;20486;-86
2021/04/01 00:11:10;;;;;;;15.63;8.23;;;;;;;14.83;44.95;96552.72;5058021;28;20527;-86
2021/04/01 00:13:36;;;;;;;13.27;7.47;;;;;;;14.77;45.38;96552.25;5058049;28;20457;-86
2021/04/01 00:16:03;;;;;;;17.83;9.20;;;;;;;14.71;45.66;96543.63;5058040;28;20534;-86
2021/04/01 00:18:30;;;;;;;16.77;8.63;;;;;;;14.69;45.59;96542.78;5057595;28;20560;-86
2021/04/01 00:20:56;;;;;;;14.30;8.70;;;;;;;14.64;45.92;96549.16;5057338;28;20459;-87
2021/04/01 00:23:22;;;;;;;16.80;8.80;;;;;;;14.59;46.14;96545.41;5057874;28;20411;-86
2021/04/01 00:25:48;;;;;;;19.47;9.53;;;;;;;14.54;46.50;96545.66;5057824;28;20885;-86
2021/04/01 00:28:14;;;;;;;12.73;8.03;;;;;;;14.50;46.43;96539.94;5057545;28;20473;-87
2021/04/01 00:30:40;;;;;;;14.73;8.90;;;;;;;14.43;46.52;96534.03;5057120;28;20620;-87
2021/04/01 00:33:06;;;;;;;17.60;8.17;;;;;;;14.35;46.89;96527.97;5067809;28;20405;-86
2021/04/01 00:35:33;;;;;;;21.40;8.80;;;;;;;14.28;47.20;96530.75;5078712;28;20425;-86
2021/04/01 00:38:00;;;;;;;16.87;7.80;;;;;;;14.21;47.52;96534.25;5078581;28;20425;-87
2021/04/01 00:40:26;;;;;;;14.43;8.27;;;;;;;14.16;47.72;96537.94;5064546;28;20453;-86
2021/04/01 00:42:53;;;;;;;18.60;7.50;;;;;;;14.10;47.73;96540.16;5058697;28;20518;-87
2021/04/01 00:45:20;;;;;;;20.10;8.60;;;;;;;14.05;47.90;96538.41;5057207;28;20443;-87
2021/04/01 00:47:50;;;;;;;18.47;8.20;;;;;;;13.99;48.57;96532.50;5057227;28;20922;-87
2021/04/01 00:50:18;;;;;;;17.83;7.83;;;;;;;13.94;48.47;96534.16;5057044;28;20464;-87
2021/04/01 00:52:45;;;;;;;20.63;7.50;;;;;;;13.89;48.64;96533.16;5057417;28;20528;-87
2021/04/01 00:55:13;;;;;;;15.00;8.43;;;;;;;13.87;48.87;96535.72;5057545;28;20494;-87
2021/04/01 00:57:43;;;;;;;17.20;8.70;;;;;;;13.82;49.16;96533.94;5057258;28;20506;-87
2021/04/01 01:00:12;;;;;;;15.43;9.20;;;;;;;13.76;49.33;96517.19;5057355;28;20542;-86
2021/04/01 01:02:38;;;;;;;20.30;9.03;;;;;;;13.66;49.94;96526.50;5057192;28;20437;-86
2021/04/01 01:05:06;;;;;;;16.60;9.20;;;;;;;13.61;50.31;96525.47;5057260;28;20510;-87
2021/04/01 01:07:32;;;;;;;15.03;8.60;;;;;;;13.56;50.77;96512.13;5056642;28;20476;-86
2021/04/01 01:09:59;;;;;;;17.60;9.00;;;;;;;13.55;50.86;96514.13;5057061;28;20547;-86
2021/04/01 01:12:26;;;;;;;14.00;8.47;;;;;;;13.51;51.49;96511.09;5056954;28;20928;-86
2021/04/01 01:14:52;;;;;;;20.60;9.27;;;;;;;13.52;51.24;96514.53;5057197;28;20887;-86
2021/04/01 01:17:18;;;;;;;20.90;9.10;;;;;;;13.45;51.75;96518.72;5056732;28;20450;-85
2021/04/01 01:19:52;;;;;;;19.33;8.53;;;;;;;13.41;51.68;96502.84;5056860;28;20442;-86
2021/04/01 01:22:19;;;;;;;13.73;8.33;;;;;;;13.37;51.71;96507.25;5056523;28;20475;-86
2021/04/01 01:24:46;;;;;;;15.20;8.80;;;;;;;13.32;52.16;96503.47;5056347;28;20446;-86
2021/04/01 01:27:13;;;;;;;15.30;8.67;;;;;;;13.25;52.33;96504.25;5056201;28;20420;-86
2021/04/01 01:29:40;;;;;;;17.87;9.47;;;;;;;13.20;52.73;96501.78;5056769;28;20517;-86
2021/04/01 01:32:07;;;;;;;14.00;8.40;;;;;;;13.12;53.06;96499.13;5058237;28;20472;-86
2021/04/01 01:34:35;;;;;;;14.87;8.80;;;;;;;13.09;53.45;96504.94;5060696;28;20496;-86
2021/04/01 01:37:02;;;;;;;14.90;8.90;;;;;;;13.06;53.27;96503.31;5060344;28;20921;-86
2021/04/01 01:39:28;;;;;;;17.07;9.00;;;;;;;13.00;53.50;96503.50;5060357;28;20484;-86
2021/04/01 01:41:55;;;;;;;18.03;9.40;;;;;;;12.95;53.66;96495.59;5060290;28;20457;-87
2021/04/01 01:44:21;;;;;;;16.20;8.90;;;;;;;12.96;53.78;96491.63;5060306;28;20431;-86
2021/04/01 01:46:47;;;;;;;12.13;8.37;;;;;;;12.92;53.87;96499.41;5060622;28;20497;-86
2021/04/01 01:49:13;;;;;;;19.20;9.10;;;;;;;12.87;54.31;96493.66;5060811;28;20432;-86
2021/04/01 01:51:40;;;;;;;16.60;7.67;;;;;;;12.80;54.17;96488.31;5060704;28;21039;-86
2021/04/01 01:54:07;;;;;;;15.50;9.13;;;;;;;12.78;54.16;96488.84;5060804;28;20437;-86
2021/04/01 01:56:34;;;;;;;14.30;8.50;;;;;;;12.77;54.12;96481.28;5060262;28;20936;-87
2021/04/01 01:59:01;;;;;;;17.10;9.20;;;;;;;12.77;54.53;96479.31;5060478;28;20438;-86
2021/04/01 02:01:27;;;;;;;17.20;8.20;;;;;;;12.73;54.69;96480.94;5060303;28;20548;-86
2021/04/01 02:03:54;;;;;;;14.23;8.77;;;;;;;12.71;54.75;96476.09;5060560;28;20432;-86
2021/04/01 02:06:21;;;;;;;16.80;8.20;;;;;;;12.64;54.95;96478.84;5059979;28;20445;-86
2021/04/01 02:08:48;;;;;;;14.00;8.07;;;;;;;12.53;55.59;96471.84;5060123;28;20461;-86
2021/04/01 02:11:15;;;;;;;20.53;7.57;;;;;;;12.53;55.32;96479.28;5060402;28;20803;-87
2021/04/01 02:13:41;;;;;;;13.70;7.90;;;;;;;12.47;55.77;96476.06;5059766;28;20432;-87
2021/04/01 02:16:08;;;;;;;24.00;9.70;;;;;;;12.46;55.97;96463.78;5059520;28;20438;-87
2021/04/01 02:18:34;;;;;;;14.97;8.83;;;;;;;12.40;56.14;96466.72;5060507;28;20500;-86
2021/04/01 02:21:01;;;;;;;12.37;8.50;;;;;;;12.37;56.65;96458.97;5060598;28;20437;-86
2021/04/01 02:23:35;;;;;;;18.57;8.87;;;;;;;12.33;57.01;96459.34;5081121;28;20409;-86
2021/04/01 02:26:03;;;;;;;16.70;9.07;;;;;;;12.27;56.94;96454.16;5081114;28;20404;-86
2021/04/01 02:28:31;;;;;;;19.07;8.77;;;;;;;12.18;57.12;96462.84;5081037;28;20494;-85
2021/04/01 02:30:59;;;;;;;12.83;7.53;;;;;;;12.16;57.59;96461.94;5073015;28;20459;-87
2021/04/01 02:33:28;;;;;;;16.20;7.70;;;;;;;12.18;57.17;96462.13;5060734;28;20417;-86
2021/04/01 02:35:55;;;;;;;13.83;8.27;;;;;;;12.16;57.88;96459.22;5059726;28;20440;-87
2021/04/01 02:38:22;;;;;;;18.57;9.60;;;;;;;12.19;57.62;96456.16;5060281;28;20530;-88
2021/04/01 02:40:49;;;;;;;18.17;9.60;;;;;;;12.24;57.27;96454.53;5059886;28;20451;-86
2021/04/01 02:43:20;;;;;;;15.83;9.00;;;;;;;12.19;57.75;96456.16;5059844;28;20397;-87
2021/04/01 02:45:46;;;;;;;16.37;8.70;;;;;;;12.16;57.81;96451.84;5059609;28;20473;-87
2021/04/01 02:48:12;;;;;;;17.30;9.00;;;;;;;12.16;58.33;96451.13;5059423;28;20405;-87
2021/04/01 02:50:39;;;;;;;17.90;9.27;;;;;;;12.12;58.14;96448.09;5059185;28;20464;-87
2021/04/01 02:53:05;;;;;;;15.87;8.13;;;;;;;12.03;58.61;96452.06;5059619;28;20537;-87
2021/04/01 02:55:31;;;;;;;12.67;7.27;;;;;;;12.03;58.81;96445.97;5059989;28;20485;-86
2021/04/01 02:57:58;;;;;;;16.03;7.60;;;;;;;12.03;58.37;96451.38;5059840;28;20421;-87
2021/04/01 03:00:27;;;;;;;16.30;9.03;;;;;;;12.01;58.48;96453.88;5059700;28;20463;-87
2021/04/01 03:02:56;;;;;;;13.13;8.53;;;;;;;12.00;59.11;96455.16;5059478;28;20450;-87
2021/04/01 03:05:22;;;;;;;15.97;9.00;;;;;;;12.01;58.56;96451.19;5059429;28;20459;-87
2021/04/01 03:07:49;;;;;;;10.70;7.47;;;;;;;12.01;58.68;96443.78;5059395;28;20908;-87
2021/04/01 03:10:15;;;;;;;19.00;8.63;;;;;;;12.02;58.45;96445.25;5059328;28;20459;-86
2021/04/01 03:12:41;;;;;;;16.67;8.30;;;;;;;12.04;58.72;96450.09;5059127;28;20786;-87
2021/04/01 03:15:10;;;;;;;16.80;9.23;;;;;;;12.03;58.54;96451.38;5059320;28;20427;-88
2021/04/01 03:17:37;;;;;;;17.83;8.40;;;;;;;12.01;58.61;96443.78;5060121;28;20500;-87
2021/04/01 03:20:04;;;;;;;19.03;8.47;;;;;;;12.01;58.03;96449.22;5060756;28;20470;-87
2021/04/01 03:22:30;;;;;;;15.23;8.10;;;;;;;12.02;57.95;96449.94;5059517;28;20421;-86
2021/04/01 03:24:57;;;;;;;16.50;8.27;;;;;;;12.02;58.50;96455.34;5059333;28;20482;-85
2021/04/01 03:27:24;;;;;;;14.10;8.20;;;;;;;12.00;58.33;96455.16;5059802;28;20461;-86
2021/04/01 03:30:03;;;;;;;16.37;7.57;;;;;;;11.93;58.80;96455.91;5059111;28;20520;-87
2021/04/01 03:32:30;;;;;;;22.00;8.53;;;;;;;11.96;58.80;96446.72;5058788;28;20807;-86
2021/04/01 03:34:56;;;;;;;15.40;8.70;;;;;;;11.96;58.46;96452.13;5059299;28;20447;-87
2021/04/01 03:37:22;;;;;;;17.27;7.50;;;;;;;11.96;58.53;96452.84;5058870;28;20446;-87
2021/04/01 03:39:48;;;;;;;19.33;8.70;;;;;;;11.93;59.11;96443.13;5059489;28;20443;-87
2021/04/01 03:42:15;;;;;;;15.60;7.63;;;;;;;11.86;59.24;96456.66;5058809;28;20764;-86
2021/04/01 03:44:41;;;;;;;16.53;8.60;;;;;;;11.78;59.49;96456.66;5058608;28;20480;-86
2021/04/01 03:47:07;;;;;;;24.63;9.57;;;;;;;11.75;59.20;96455.78;5059006;28;20902;-86
2021/04/01 03:49:33;;;;;;;15.73;8.47;;;;;;;11.73;59.51;96447.50;5058763;28;20460;-86
2021/04/01 03:52:00;;;;;;;19.50;7.83;;;;;;;11.69;59.77;96447.13;5058227;28;20516;-86
2021/04/01 03:54:26;;;;;;;14.20;8.20;;;;;;;11.69;58.99;96447.13;5058257;28;20424;-86
2021/04/01 03:56:52;;;;;;;13.30;8.73;;;;;;;11.67;59.30;96444.25;5059059;28;20590;-86
2021/04/01 03:59:21;;;;;;;17.83;8.77;;;;;;;11.70;59.41;96445.16;5058555;28;20514;-86
2021/04/01 04:02:16;;;;;;;14.37;8.87;;;;;;;11.76;58.89;96451.81;5058170;28;20454;-87
2021/04/01 04:04:57;;;;;;;12.87;7.80;;;;;;;11.77;58.74;96452.53;5058624;28;20409;-84
2021/04/01 04:07:38;;;;;;;16.10;8.40;;;;;;;11.78;58.93;96453.97;5059240;28;20426;-85
2021/04/01 04:10:14;;;;;;;16.13;9.20;;;;;;;11.80;58.51;96452.19;5057828;28;20498;-86
2021/04/01 04:12:49;;;;;;;13.87;8.43;;;;;;;11.83;58.08;96455.75;5058652;28;20507;-86
2021/04/01 04:15:18;;;;;;;17.60;8.27;;;;;;;11.87;57.90;96453.41;5058131;28;20850;-87
2021/04/01 04:17:44;;;;;;;14.50;8.50;;;;;;;11.87;57.82;96460.81;5058221;28;20447;-85
2021/04/01 04:20:12;;;;;;;15.97;8.43;;;;;;;11.86;58.06;96457.38;5058109;28;20489;-86
2021/04/01 04:22:38;;;;;;;11.90;6.90;;;;;;;11.89;57.96;96455.56;5057977;28;20473;-86
2021/04/01 04:25:08;;;;;;;14.47;7.57;;;;;;;11.91;57.82;96447.63;5058468;28;20430;-86
2021/04/01 04:30:19;;;;;;;15.70;7.30;;;;;;;11.92;57.84;96440.94;5047912;28;20486;-86
2021/04/01 04:32:45;;;;;;;11.90;8.00;;;;;;;11.94;57.79;96443.81;5058862;28;20440;-86
2021/04/01 04:35:13;;;;;;;15.57;7.80;;;;;;;11.96;57.64;96446.72;5059980;28;20530;-86
2021/04/01 04:37:39;;;;;;;15.20;8.87;;;;;;;11.96;57.35;96450.13;5059215;28;20488;-86
2021/04/01 04:40:07;;;;;;;13.63;8.43;;;;;;;12.00;57.62;96460.56;5060036;28;20470;-85
2021/04/01 04:42:33;;;;;;;17.63;7.80;;;;;;;11.98;57.49;96452.28;5059077;28;20795;-85
2021/04/01 04:44:59;;;;;;;14.27;8.10;;;;;;;12.02;57.22;96456.06;5059857;28;20440;-86
2021/04/01 04:47:26;;;;;;;15.53;7.80;;;;;;;12.00;57.37;96455.16;5058787;28;20605;-86
2021/04/01 04:49:52;;;;;;;18.33;8.77;;;;;;;12.02;57.68;96447.22;5058538;28;20571;-87
2021/04/01 04:52:20;;;;;;;12.27;7.80;;;;;;;12.03;57.54;96460.19;5058852;28;20427;-86
2021/04/01 04:54:46;;;;;;;15.90;8.47;;;;;;;12.00;57.69;96461.28;5058755;28;21022;-86
2021/04/01 04:57:17;;;;;;;19.40;8.20;;;;;;;12.02;57.13;96461.47;5058901;28;20434;-87
2021/04/01 04:59:57;;;;;;;12.53;8.20;;;;;;;12.01;57.43;96470.13;5058918;28;20397;-87
2021/04/01 05:05:10;;;;;;;23.20;8.90;;;;;;;11.93;57.62;96464.03;5059069;28;20402;-87
2021/04/01 05:07:36;;;;;;;14.43;9.03;;;;;;;11.96;58.21;96471.78;5062813;28;20476;-87
2021/04/01 05:10:02;;;;;;;17.23;7.40;;;;;;;12.02;57.59;96461.47;5063357;28;20484;-87
2021/04/01 05:12:28;;;;;;;18.20;7.37;;;;;;;12.11;58.02;96468.28;5063096;28;20476;-87
2021/04/01 05:14:54;;;;;;;12.40;8.03;;;;;;;12.21;57.30;96458.31;5063036;28;20840;-86
2021/04/01 05:17:22;;;;;;;15.00;7.80;;;;;;;12.40;57.18;96463.28;5062882;28;20482;-87
2021/04/01 05:19:51;;;;;;;15.90;8.37;;;;;;;12.58;56.33;96460.09;5063521;28;20425;-87
2021/04/01 05:22:22;;;;;;;15.83;7.60;;;;;;;12.82;55.77;96466.81;5063551;28;20512;-87
2021/04/01 05:24:51;;;;;;;17.83;8.23;;;;;;;13.07;54.93;96464.09;5063623;28;20504;-86
2021/04/01 05:27:24;;;;;;;17.53;8.63;;;;;;;13.26;54.39;96472.44;5062635;28;20409;-87
2021/04/01 05:29:59;;;;;;;12.90;8.63;;;;;;;13.38;53.91;96471.44;5062294;28;20470;-87
2021/04/01 05:32:27;;;;;;;12.80;7.57;;;;;;;13.65;53.39;96479.69;5063373;28;20404;-87
2021/04/01 05:34:54;;;;;;;13.67;7.87;;;;;;;13.89;52.81;96481.59;5063431;28;20450;-86
2021/04/01 05:37:22;;;;;;;19.93;7.83;;;;;;;14.21;52.10;96485.41;5062852;28;20443;-87
2021/04/01 05:39:50;;;;;;;13.53;6.70;;;;;;;14.42;51.49;96485.72;5062259;28;20442;-86
2021/04/01 05:42:18;;;;;;;19.53;8.23;;;;;;;14.54;50.80;96485.91;5062346;28;20449;-86
2021/04/01 05:44:47;;;;;;;16.40;7.70;;;;;;;14.83;50.43;96492.94;5063763;28;20543;-86
2021/04/01 05:47:16;;;;;;;13.20;8.30;;;;;;;15.05;49.53;96491.16;5062999;28;20496;-87
2021/04/01 05:50:06;;;;;;;18.20;9.27;;;;;;;15.18;49.19;96492.78;5062282;28;20456;-87
2021/04/01 05:53:37;;;;;;;25.10;13.50;;;;;;;15.17;49.32;96496.78;5063117;28;20471;-86
2021/04/01 05:56:22;;;;;;;29.10;15.30;;;;;;;15.31;48.98;96500.56;5062978;28;20441;-86
2021/04/01 05:59:24;;;;;;;28.97;15.43;;;;;;;15.22;48.96;96501.97;5073542;28;20435;-89
2021/04/01 06:02:08;;;;;;;32.93;15.50;;;;;;;15.02;49.23;96500.44;5081012;28;20463;-90
2021/04/01 06:04:40;;;;;;;33.43;13.23;;;;;;;14.82;49.99;96502.34;5080914;28;20472;-92
2021/04/01 06:07:13;;;;;;;22.73;12.50;;;;;;;14.69;50.35;96504.75;5078423;28;20422;-93
2021/04/01 06:09:44;;;;;;;29.80;10.50;;;;;;;14.79;50.57;96500.06;5066906;28;20500;-92
2021/04/01 06:12:11;;;;;;;18.90;10.10;;;;;;;15.09;49.95;96505.06;5069725;28;20477;-94
2021/04/01 06:14:57;;;;;;;16.03;8.73;;;;;;;15.48;49.25;96501.19;5074581;28;20473;-94
2021/04/01 06:17:26;;;;;;;16.07;9.40;;;;;;;15.85;48.74;96501.09;5064315;28;20450;-92
2021/04/01 06:19:58;;;;;;;12.57;9.10;;;;;;;16.50;47.27;96507.09;5065019;28;20404;-91
2021/04/01 06:22:26;;;;;;;17.43;8.77;;;;;;;16.94;46.05;96514.19;5065326;28;20426;-91
2021/04/01 06:24:54;;;;;;;16.30;8.47;;;;;;;17.02;45.82;96509.97;5065195;28;20438;-92
2021/04/01 06:27:25;;;;;;;24.97;15.33;;;;;;;16.75;46.54;96514.94;5065828;28;20462;-92
2021/04/01 06:30:20;;;;;;;18.17;12.33;;;;;;;17.21;45.66;96519.38;5067000;28;20496;-90
2021/04/01 06:32:56;;;;;;;12.57;9.20;;;;;;;17.56;45.04;96514.91;5080400;28;20393;-90
2021/04/01 06:35:26;;;;;;;13.90;8.70;;;;;;;17.94;44.19;96520.13;5080318;28;20434;-90
2021/04/01 06:38:16;;;;;;;11.67;7.40;;;;;;;18.24;43.44;96510.41;5079708;28;20393;-92
2021/04/01 06:41:25;;;;;;;14.53;8.43;;;;;;;18.74;42.54;96515.56;5077880;28;20456;-90
2021/04/01 06:44:03;;;;;;;18.13;8.37;;;;;;;18.92;41.33;96522.13;5076289;28;20439;-88
2021/04/01 06:46:41;;;;;;;13.23;8.53;;;;;;;18.82;41.61;96515.34;5072557;28;20450;-88
2021/04/01 06:52:32;;;;;;;14.60;8.07;;;;;;;18.84;41.70;96510.72;5069922;28;20592;-90
2021/04/01 06:55:08;;;;;;;14.33;8.60;;;;;;;19.67;39.73;96515.63;5066043;28;20510;-91
2021/04/01 06:57:57;;;;;;;16.03;8.53;;;;;;;19.72;39.37;96520.00;5068347;28;20532;-90
2021/04/01 07:03:19;;;;;;;18.33;9.60;;;;;;;19.27;39.92;96517.41;5066094;28;20959;-92
2021/04/01 07:05:55;;;;;;;17.10;9.50;;;;;;;19.24;40.52;96515.84;5067387;28;20453;-93
2021/04/01 07:08:38;;;;;;;22.67;13.50;;;;;;;19.37;40.07;96513.81;5064351;28;20448;-89
2021/04/01 07:11:07;;;;;;;31.30;13.03;;;;;;;19.69;39.41;96513.69;5065010;28;20509;-94
2021/04/01 07:13:41;;;;;;;16.57;8.87;;;;;;;19.79;39.29;96519.03;5071813;28;20415;-95
2021/04/01 07:16:21;;;;;;;16.40;10.40;;;;;;;20.14;38.28;96514.16;5071670;28;20419;-95
2021/04/01 07:19:15;;;;;;;17.77;9.60;;;;;;;20.39;38.04;96516.25;5077291;28;20510;-95
2021/04/01 07:35:55;;;;;;;15.63;9.30;;;;;;;20.88;38.40;96507.84;5068423;28;20407;-94
2021/04/01 07:46:48;;;;;;;11.53;7.67;;;;;;;22.19;37.36;96526.19;5066166;28;20502;-90
2021/04/01 07:49:22;;;;;;;13.90;7.73;;;;;;;22.17;37.74;96528.84;5065127;28;20474;-90
2021/04/01 07:52:00;;;;;;;18.63;8.13;;;;;;;22.41;37.49;96527.25;5065243;28;20494;-91
2021/04/01 07:54:33;;;;;;;13.83;8.10;;;;;;;22.83;36.75;96523.00;5063310;28;20930;-90
2021/04/01 07:57:28;;;;;;;15.53;7.77;;;;;;;23.19;35.54;96518.38;5061997;28;20429;-83
2021/04/01 08:00:01;;;;;;;13.80;7.83;;;;;;;23.52;35.19;96522.56;5064216;28;20931;-85
2021/04/01 08:02:47;;;;;;;17.33;8.40;;;;;;;23.96;34.48;96527.19;5066344;28;20858;-84
2021/04/01 08:05:22;;;;;;;13.20;7.33;;;;;;;24.13;34.29;96525.81;5062389;28;20430;-84
2021/04/01 08:07:53;;;;;;;10.37;7.47;;;;;;;23.74;34.26;96524.22;5061741;28;20428;-83
2021/04/01 08:10:23;;;;;;;18.33;8.30;;;;;;;23.37;35.11;96530.19;5062801;28;20512;-83
2021/04/01 08:12:56;;;;;;;16.73;8.90;;;;;;;23.66;34.75;96528.66;5065447;28;20443;-92
2021/04/01 08:15:26;;;;;;;13.83;7.93;;;;;;;23.66;34.90;96515.59;5066322;28;20453;-89
2021/04/01 08:18:05;;;;;;;14.40;8.47;;;;;;;24.10;34.63;96525.00;5070881;28;20581;-90
2021/04/01 08:20:35;;;;;;;14.40;7.67;;;;;;;24.43;34.31;96518.75;5072951;28;20462;-92
2021/04/01 08:23:06;;;;;;;11.23;7.37;;;;;;;24.55;33.65;96524.00;5066768;28;20482;-87
2021/04/01 08:25:38;;;;;;;12.33;7.57;;;;;;;24.28;34.59;96517.47;5062053;28;20430;-89
2021/04/01 08:28:19;;;;;;;14.17;8.23;;;;;;;24.01;34.84;96514.97;5063789;28;20438;-92
2021/04/01 08:33:40;;;;;;;14.60;7.80;;;;;;;23.97;35.35;96515.50;5042016;28;20426;-89
2021/04/01 08:36:10;;;;;;;15.87;8.77;;;;;;;23.49;36.23;96521.78;5064893;28;20485;-91
2021/04/01 08:38:40;;;;;;;18.23;7.60;;;;;;;22.96;37.18;96518.75;5065825;28;20411;-92
2021/04/01 08:41:17;;;;;;;20.83;7.87;;;;;;;22.96;37.28;96515.28;5071835;28;20538;-92
2021/04/01 08:44:01;;;;;;;17.80;6.70;;;;;;;22.79;37.67;96511.09;5067731;28;20470;-93
2021/04/01 08:46:48;;;;;;;18.83;7.93;;;;;;;22.81;37.93;96511.19;5065969;28;20468;-92
2021/04/01 08:49:35;;;;;;;18.50;7.20;;;;;;;22.89;37.61;96511.56;5064224;28;20415;-89
2021/04/01 08:52:23;;;;;;;16.17;9.03;;;;;;;22.87;37.83;96517.66;5076440;28;20446;-90
2021/04/01 08:55:01;;;;;;;11.03;7.67;;;;;;;22.67;38.67;96516.06;5077854;28;20415;-91
2021/04/01 08:57:32;;;;;;;12.47;7.50;;;;;;;22.78;38.25;96517.91;5077132;28;20434;-90
2021/04/01 09:00:05;;;;;;;15.70;8.30;;;;;;;22.47;39.11;96509.59;5069777;28;20431;-90
2021/04/01 09:02:32;;;;;;;17.70;8.17;;;;;;;22.31;39.34;96506.78;5061836;28;20479;-90
2021/04/01 09:05:00;;;;;;;15.03;8.23;;;;;;;22.08;39.86;96504.34;5063449;28;20446;-91
2021/04/01 09:07:36;;;;;;;9.90;7.17;;;;;;;22.11;39.86;96506.56;5068242;28;20521;-94
2021/04/01 09:10:05;;;;;;;14.77;7.30;;;;;;;21.90;41.02;96509.66;5066899;28;20474;-92
2021/04/01 09:12:44;;;;;;;18.23;8.00;;;;;;;21.85;41.24;96505.25;5065472;28;20483;-94
2021/04/01 09:15:18;;;;;;;18.40;7.53;;;;;;;22.08;40.85;96516.03;5065169;28;20431;-90
2021/04/01 09:17:46;;;;;;;13.27;7.47;;;;;;;21.97;41.42;96511.38;5063816;28;20425;-91
2021/04/01 09:20:14;;;;;;;17.17;6.83;;;;;;;22.08;41.00;96504.34;5064141;28;20534;-89
2021/04/01 09:22:45;;;;;;;13.80;7.73;;;;;;;21.61;42.16;96496.56;5063621;28;20887;-88
2021/04/01 09:25:12;;;;;;;16.77;8.50;;;;;;;21.84;41.21;96503.84;5064145;28;20481;-90
2021/04/01 09:27:46;;;;;;;13.97;7.37;;;;;;;21.89;40.84;96508.25;5065978;28;20453;-94
2021/04/01 09:30:15;;;;;;;10.00;6.70;;;;;;;21.53;41.75;96500.91;5066450;28;20494;-94
2021/04/01 09:32:49;;;;;;;14.90;6.90;;;;;;;21.31;41.82;96503.25;5069080;28;20446;-93
2021/04/01 09:54:30;;;;;;;12.90;5.90;;;;;;;21.14;41.42;96507.22;5048096;28;20538;-92
2021/04/01 09:56:58;;;;;;;12.73;6.47;;;;;;;21.18;41.05;96499.19;5049077;28;20454;-92
2021/04/01 09:59:39;;;;;;;13.20;6.30;;;;;;;21.23;40.48;96503.56;5052548;28;20446;-93
2021/04/01 10:02:09;;;;;;;16.07;6.70;;;;;;;21.15;40.65;96503.16;5049931;28;20490;-93
2021/04/01 10:04:44;;;;;;;17.90;7.57;;;;;;;21.26;40.16;96498.91;5056636;28;20447;-93
2021/04/01 10:07:15;;;;;;;19.80;7.40;;;;;;;21.32;39.94;96490.97;5055684;28;20457;-92
2021/04/01 10:09:52;;;;;;;10.60;6.70;;;;;;;21.45;39.90;96490.25;5054917;28;20450;-93
2021/04/01 10:12:35;;;;;;;19.80;7.40;;;;;;;21.40;39.55;96485.16;5053292;28;20419;-93
2021/04/01 10:15:12;;;;;;;16.23;7.57;;;;;;;21.38;39.99;96476.81;5052293;28;20416;-93
2021/04/01 10:17:40;;;;;;;16.57;6.90;;;;;;;21.51;39.73;96478.84;5049714;28;20451;-92
2021/04/01 10:20:11;;;;;;;8.20;7.10;;;;;;;21.60;39.89;96475.19;5049267;28;20442;-93
2021/04/01 10:22:39;;;;;;;14.03;6.77;;;;;;;21.77;38.95;96469.16;5053623;28;20430;-93
2021/04/01 10:25:13;;;;;;;12.30;6.87;;;;;;;21.94;39.13;96471.38;5053924;28;20459;-93
2021/04/01 10:27:46;;;;;;;15.83;6.20;;;;;;;21.94;39.21;96465.88;5051646;28;20473;-93
2021/04/01 10:51:34;;;;;;;10.83;5.33;;;;;;;22.47;38.29;96424.31;5062935;28;20520;-91
2021/04/01 10:54:09;;;;;;;10.80;6.07;;;;;;;22.44;38.02;96426.28;5069918;28;20438;-94
2021/04/01 10:56:48;;;;;;;9.53;5.70;;;;;;;22.20;38.11;96422.44;5076618;28;20450;-92
2021/04/01 10:59:14;;;;;;;8.87;6.07;;;;;;;22.07;38.71;96412.91;5079001;28;20411;-93
2021/04/01 11:17:08;;;;;;;16.80;6.53;;;;;;;22.76;37.43;96405.00;5027202;28;20480;-93
2021/04/01 11:19:36;;;;;;;11.57;4.80;;;;;;;22.98;37.43;96397.72;5028065;28;20428;-92
2021/04/01 11:22:06;;;;;;;7.20;5.77;;;;;;;22.47;37.37;96397.53;5028770;28;20452;-93
2021/04/01 11:24:46;;;;;;;14.00;5.60;;;;;;;22.45;37.93;96399.47;5033497;28;20443;-96
2021/04/01 11:45:28;;;;;;;9.27;4.70;;;;;;;22.58;37.47;96384.94;5062799;28;20486;-93
2021/04/01 11:47:56;;;;;;;7.60;4.83;;;;;;;22.82;36.86;96378.47;5067285;28;20415;-92
2021/04/01 11:50:23;;;;;;;13.03;4.53;;;;;;;23.08;36.61;96376.13;5067269;28;20516;-91
2021/04/01 11:53:05;;;;;;;9.00;4.40;;;;;;;23.23;35.89;96377.41;5077351;28;20434;-93
2021/04/01 11:55:50;;;;;;;6.10;3.90;;;;;;;23.15;36.40;96377.78;5078204;28;20434;-95
2021/04/01 12:17:04;;;;;;;5.20;3.93;;;;;;;23.45;35.30;96343.25;5049101;28;20478;-93
2021/04/01 12:19:34;;;;;;;3.93;3.30;;;;;;;23.41;35.35;96345.84;5048215;28;20465;-93
2021/04/01 12:22:06;;;;;;;6.33;4.30;;;;;;;23.33;35.24;96347.53;5039166;28;20554;-88
2021/04/01 12:24:33;;;;;;;8.90;4.30;;;;;;;23.51;35.51;96347.56;5046581;28;20882;-87
2021/04/01 12:26:59;;;;;;;9.40;4.57;;;;;;;23.68;35.94;96342.06;5057602;28;20451;-86
2021/04/01 12:29:25;;;;;;;7.63;4.00;;;;;;;23.52;35.92;96335.94;5057992;28;20432;-92
2021/04/01 12:31:53;;;;;;;10.13;4.00;;;;;;;23.75;35.90;96331.97;5056366;28;20505;-94
2021/04/01 13:16:00;;;;;;;5.63;3.20;;;;;;;24.07;33.41;96307.69;5039778;28;20467;-85
2021/04/01 13:18:26;;;;;;;8.33;3.20;;;;;;;24.10;32.66;96301.59;5040213;28;20443;-84
2021/04/01 13:20:54;;;;;;;6.30;2.90;;;;;;;24.14;32.49;96312.81;5041082;28;20485;-85
2021/04/01 13:23:29;;;;;;;7.03;3.60;;;;;;;23.81;32.64;96305.34;5040177;28;20468;-83
2021/04/01 13:26:30;;;;;;;5.30;3.37;;;;;;;23.91;32.98;96308.50;5042259;28;20447;-92
2021/04/01 13:32:41;;;;;;;8.97;3.40;;;;;;;23.49;32.90;96298.63;5050622;28;20532;-92
2021/04/01 13:35:23;;;;;;;7.23;3.23;;;;;;;23.33;33.44;96303.47;5052153;28;20432;-92
2021/04/01 13:41:59;;;;;;;13.13;3.40;;;;;;;23.31;34.95;96306.84;5016404;28;20447;-94
2021/04/01 13:44:57;;;;;;;14.43;4.00;;;;;;;23.22;35.21;96290.63;5055311;28;20510;-94
2021/04/01 13:47:35;;;;;;;8.80;4.30;;;;;;;23.11;35.33;96303.28;5053561;28;20443;-92
2021/04/01 13:50:02;;;;;;;7.60;3.63;;;;;;;22.86;35.09;96301.59;5048747;28;20431;-88
2021/04/01 13:52:35;;;;;;;13.87;4.37;;;;;;;22.92;34.66;96303.88;5046541;28;20470;-91
2021/04/01 13:55:06;;;;;;;12.27;3.73;;;;;;;22.88;34.53;96287.19;5046306;28;20446;-90
2021/04/01 13:57:58;;;;;;;5.33;3.27;;;;;;;22.86;34.82;96306.38;5050552;28;20493;-95
2021/04/01 14:00:40;;;;;;;15.90;3.50;;;;;;;22.73;33.51;96302.41;5049799;28;20490;-87
2021/04/01 14:09:01;;;;;;;6.63;3.87;;;;;;;22.77;33.66;96297.06;5040884;28;20423;-86
2021/04/01 14:11:28;;;;;;;6.37;3.60;;;;;;;22.83;33.71;96289.06;5041229;28;20491;-87
2021/04/01 14:13:55;;;;;;;6.17;3.63;;;;;;;22.79;34.38;96291.66;5041765;28;20457;-88
2021/04/01 14:16:21;;;;;;;5.70;3.83;;;;;;;22.78;34.54;96292.25;5043779;28;20435;-88
2021/04/01 14:18:50;;;;;;;7.43;4.00;;;;;;;22.87;34.75;96289.22;5061837;28;20543;-89
2021/04/01 14:21:18;;;;;;;9.23;4.47;;;;;;;23.02;33.86;96298.78;5062487;28;20462;-88
2021/04/01 14:23:45;;;;;;;7.83;4.03;;;;;;;22.89;34.81;96285.84;5062902;28;20597;-88
2021/04/01 14:26:21;;;;;;;9.60;5.30;;;;;;;23.02;33.87;96285.03;5062014;28;20429;-85
2021/04/01 14:28:47;;;;;;;7.70;5.03;;;;;;;22.87;34.87;96280.25;5062185;28;20423;-88
2021/04/01 14:31:15;;;;;;;13.70;5.90;;;;;;;22.65;35.26;96279.31;5066675;28;20961;-87
2021/04/01 14:33:43;;;;;;;9.13;5.03;;;;;;;22.61;35.17;96270.91;5069840;28;20572;-86
2021/04/01 14:36:13;;;;;;;13.90;5.93;;;;;;;22.78;34.96;96275.75;5067682;28;20454;-87
2021/04/01 14:38:40;;;;;;;13.90;5.47;;;;;;;22.86;35.12;96281.59;5064473;28;20470;-87
2021/04/01 14:41:10;;;;;;;8.90;5.97;;;;;;;22.94;34.51;96281.94;5062234;28;20537;-88
2021/04/01 14:43:38;;;;;;;11.30;4.60;;;;;;;23.13;34.43;96275.13;5061795;28;20451;-86
2021/04/01 14:46:06;;;;;;;12.07;5.60;;;;;;;23.07;34.51;96266.59;5061374;28;20497;-87
2021/04/01 14:48:33;;;;;;;12.53;5.53;;;;;;;23.19;34.48;96283.59;5062090;28;20539;-87
2021/04/01 14:51:00;;;;;;;10.50;5.33;;;;;;;23.01;33.27;96275.34;5060732;28;20569;-85